createdAt,value
2023-02-01T00:01:47.708Z,9.50
2023-02-01T00:04:17.226Z,9.50
2023-02-01T00:06:46.457Z,9.50
2023-02-01T00:09:18.486Z,9.50
2023-02-01T00:11:45.950Z,9.50
2023-02-01T00:14:14.071Z,9.50
2023-02-01T00:16:53.312Z,9.60
2023-02-01T00:19:20.620Z,9.60
2023-02-01T00:21:47.826Z,9.60
2023-02-01T00:24:19.665Z,9.60
2023-02-01T00:26:49.581Z,9.60
2023-02-01T00:29:20.044Z,9.60
2023-02-01T00:31:54.235Z,9.60
2023-02-01T00:34:23.976Z,9.60
2023-02-01T00:36:56.005Z,9.60
2023-02-01T00:39:23.125Z,9.60
2023-02-01T00:41:52.606Z,9.60
2023-02-01T00:44:22.340Z,9.60
2023-02-01T00:46:49.550Z,9.60
2023-02-01T00:49:19.310Z,9.60
2023-02-01T00:51:51.082Z,9.60
2023-02-01T00:54:18.269Z,9.60
2023-02-01T00:56:45.424Z,9.60
2023-02-01T00:59:15.133Z,9.60
2023-02-01T01:01:44.564Z,9.60
2023-02-01T01:04:11.815Z,9.60
2023-02-01T01:06:39.063Z,9.60
2023-02-01T01:09:08.874Z,9.60
2023-02-01T01:11:40.051Z,9.70
2023-02-01T01:14:10.349Z,9.70
2023-02-01T01:16:42.261Z,9.70
2023-02-01T01:19:09.433Z,9.60
2023-02-01T01:21:36.596Z,9.60
2023-02-01T01:24:04.009Z,9.70
2023-02-01T01:26:35.827Z,9.70
2023-02-01T01:29:05.485Z,9.70
2023-02-01T01:31:35.913Z,9.70
2023-02-01T01:34:05.303Z,9.70
2023-02-01T01:36:32.662Z,9.70
2023-02-01T01:39:01.916Z,9.70
2023-02-01T01:41:33.739Z,9.70
2023-02-01T01:44:03.049Z,9.60
2023-02-01T01:46:38.817Z,9.60
2023-02-01T01:49:12.275Z,9.50
2023-02-01T01:51:52.178Z,9.50
2023-02-01T01:54:29.115Z,9.60
2023-02-01T01:57:05.597Z,9.50
2023-02-01T01:59:39.753Z,9.60
2023-02-01T02:02:09.243Z,9.50
2023-02-01T02:04:37.498Z,9.60
2023-02-01T02:07:12.837Z,9.50
2023-02-01T02:09:45.368Z,9.50
2023-02-01T02:12:15.315Z,9.60
2023-02-01T02:14:45.453Z,9.50
2023-02-01T02:17:31.276Z,9.50
2023-02-01T02:20:49.594Z,9.50
2023-02-01T02:23:42.494Z,9.50
2023-02-01T02:26:37.417Z,9.40
2023-02-01T02:29:04.715Z,9.40
2023-02-01T02:32:14.179Z,9.30
2023-02-01T02:34:57.181Z,9.30
2023-02-01T02:37:50.484Z,9.20
2023-02-01T02:40:38.017Z,9.20
2023-02-01T02:43:40.045Z,9.10
2023-02-01T02:46:45.763Z,9.10
2023-02-01T02:49:22.139Z,9.10
2023-02-01T02:52:16.260Z,9.00
2023-02-01T02:54:52.989Z,9.00
2023-02-01T02:57:52.188Z,8.90
2023-02-01T03:00:44.185Z,8.90
2023-02-01T03:03:30.063Z,8.90
2023-02-01T03:05:57.458Z,8.80
2023-02-01T03:08:29.188Z,8.80
2023-02-01T03:11:06.803Z,8.80
2023-02-01T03:13:57.441Z,8.80
2023-02-01T03:17:06.506Z,8.70
2023-02-01T03:19:44.766Z,8.70
2023-02-01T03:22:27.591Z,8.70
2023-02-01T03:25:26.792Z,8.70
2023-02-01T03:28:01.466Z,8.70
2023-02-01T03:30:43.144Z,8.70
2023-02-01T03:33:23.731Z,8.70
2023-02-01T03:36:17.792Z,8.70
2023-02-01T03:38:59.244Z,8.60
2023-02-01T03:41:32.777Z,8.70
2023-02-01T03:44:02.747Z,8.60
2023-02-01T03:46:36.269Z,8.60
2023-02-01T03:49:14.179Z,8.60
2023-02-01T03:51:43.949Z,8.60
2023-02-01T03:54:16.134Z,8.60
2023-02-01T03:56:46.380Z,8.60
2023-02-01T03:59:16.348Z,8.70
2023-02-01T04:01:45.988Z,8.60
2023-02-01T04:04:20.909Z,8.50
2023-02-01T04:06:54.127Z,8.50
2023-02-01T04:09:26.511Z,8.60
2023-02-01T04:11:53.682Z,8.50
2023-02-01T04:14:22.952Z,8.50
2023-02-01T04:16:53.354Z,8.50
2023-02-01T04:19:20.528Z,8.50
2023-02-01T04:21:47.734Z,8.50
2023-02-01T04:24:14.881Z,8.50
2023-02-01T04:26:42.112Z,8.50
2023-02-01T04:29:11.083Z,8.50
2023-02-01T04:31:43.152Z,8.50
2023-02-01T04:34:13.016Z,8.50
2023-02-01T04:36:40.201Z,8.50
2023-02-01T04:39:10.956Z,8.40
2023-02-01T04:41:38.129Z,8.40
2023-02-01T04:44:05.423Z,8.30
2023-02-01T04:46:37.227Z,8.40
2023-02-01T04:49:06.525Z,8.40
2023-02-01T04:51:33.701Z,8.30
2023-02-01T04:54:03.875Z,8.30
2023-02-01T04:56:31.233Z,8.30
2023-02-01T04:58:58.701Z,8.20
2023-02-01T05:01:28.194Z,8.20
2023-02-01T05:03:57.971Z,8.30
2023-02-01T05:06:25.578Z,8.30
2023-02-01T05:08:55.013Z,8.20
2023-02-01T05:11:41.259Z,8.20
2023-02-01T05:14:08.424Z,8.20
2023-02-01T05:16:35.681Z,8.20
2023-02-01T05:19:07.568Z,8.20
2023-02-01T05:21:37.346Z,8.20
2023-02-01T05:24:14.769Z,8.20
2023-02-01T05:26:49.714Z,8.20
2023-02-01T05:29:19.860Z,8.20
2023-02-01T05:31:47.687Z,8.10
2023-02-01T05:34:17.521Z,8.10
2023-02-01T05:36:51.608Z,8.10
2023-02-01T05:39:20.937Z,8.00
2023-02-01T05:41:48.418Z,8.10
2023-02-01T05:44:22.453Z,8.00
2023-02-01T05:46:50.287Z,8.00
2023-02-01T05:49:17.471Z,8.00
2023-02-01T05:51:46.823Z,7.90
2023-02-01T05:54:16.489Z,7.90
2023-02-01T05:56:43.612Z,7.90
2023-02-01T05:59:13.172Z,7.90
2023-02-01T06:01:40.304Z,7.90
2023-02-01T06:04:14.354Z,7.90
2023-02-01T06:06:43.557Z,7.90
2023-02-01T06:09:10.710Z,7.80
2023-02-01T06:11:42.685Z,7.80
2023-02-01T06:14:14.542Z,7.80
2023-02-01T06:16:41.765Z,7.80
2023-02-01T06:19:11.155Z,7.80
2023-02-01T06:21:38.407Z,7.80
2023-02-01T06:24:07.201Z,7.80
2023-02-01T06:26:37.090Z,7.80
2023-02-01T06:29:04.484Z,7.70
2023-02-01T06:31:33.063Z,7.70
2023-02-01T06:34:00.255Z,7.70
2023-02-01T06:36:27.683Z,7.60
2023-02-01T06:38:57.489Z,7.60
2023-02-01T06:41:25.270Z,7.60
2023-02-01T06:43:52.920Z,7.60
2023-02-01T06:46:22.650Z,7.60
2023-02-01T06:48:55.354Z,7.70
2023-02-01T06:51:25.209Z,7.60
2023-02-01T06:53:52.544Z,7.60
2023-02-01T06:56:22.468Z,7.60
2023-02-01T06:58:51.851Z,7.60
2023-02-01T07:01:21.658Z,7.60
2023-02-01T07:03:54.629Z,7.60
2023-02-01T07:06:21.908Z,7.60
2023-02-01T07:08:49.203Z,7.60
2023-02-01T07:11:17.887Z,7.70
2023-02-01T07:13:49.822Z,7.60
2023-02-01T07:16:19.633Z,7.60
2023-02-01T07:18:53.269Z,7.60
2023-02-01T07:21:23.401Z,7.60
2023-02-01T07:23:53.061Z,7.60
2023-02-01T07:26:22.634Z,7.60
2023-02-01T07:28:49.874Z,7.60
2023-02-01T07:31:21.780Z,7.60
2023-02-01T07:33:52.551Z,7.60
2023-02-01T07:36:25.560Z,7.50
2023-02-01T07:38:55.371Z,7.50
2023-02-01T07:41:28.748Z,7.60
2023-02-01T07:44:00.352Z,7.60
2023-02-01T07:46:30.422Z,7.60
2023-02-01T07:49:02.805Z,7.50
2023-02-01T07:51:32.515Z,7.60
2023-02-01T07:53:59.730Z,7.50
2023-02-01T07:56:26.955Z,7.60
2023-02-01T07:58:57.213Z,7.60
2023-02-01T08:01:33.068Z,7.60
2023-02-01T08:04:03.099Z,7.60
2023-02-01T08:06:37.728Z,7.50
2023-02-01T08:09:06.314Z,7.60
2023-02-01T08:11:38.753Z,7.60
2023-02-01T08:14:07.001Z,7.60
2023-02-01T08:16:36.270Z,7.60
2023-02-01T08:19:08.165Z,7.60
2023-02-01T08:21:38.209Z,7.70
2023-02-01T08:24:10.871Z,7.70
2023-02-01T08:26:38.151Z,7.60
2023-02-01T08:29:10.240Z,7.70
2023-02-01T08:31:41.883Z,7.70
2023-02-01T08:34:13.214Z,7.70
2023-02-01T08:36:43.425Z,7.70
2023-02-01T08:39:12.273Z,7.80
2023-02-01T08:41:39.783Z,7.80
2023-02-01T08:44:09.091Z,7.90
2023-02-01T08:46:38.466Z,7.90
2023-02-01T08:49:10.348Z,7.90
2023-02-01T08:51:40.172Z,7.90
2023-02-01T08:54:07.385Z,8.00
2023-02-01T08:56:40.466Z,8.00
2023-02-01T08:59:07.649Z,8.00
2023-02-01T09:01:37.277Z,8.00
2023-02-01T09:04:06.835Z,8.00
2023-02-01T09:06:34.055Z,8.00
2023-02-01T09:09:01.240Z,8.10
2023-02-01T09:11:30.501Z,8.20
2023-02-01T09:13:57.733Z,8.20
2023-02-01T09:16:24.995Z,8.20
2023-02-01T09:18:56.650Z,8.20
2023-02-01T09:21:47.299Z,8.20
2023-02-01T09:24:14.841Z,8.30
2023-02-01T09:26:44.793Z,8.30
2023-02-01T09:29:16.976Z,8.30
2023-02-01T09:31:57.608Z,8.30
2023-02-01T09:34:31.867Z,8.40
2023-02-01T09:37:01.363Z,8.40
2023-02-01T09:39:31.055Z,8.40
2023-02-01T09:42:12.912Z,8.40
2023-02-01T09:45:01.402Z,8.50
2023-02-01T09:47:30.098Z,8.50
2023-02-01T09:50:01.791Z,8.50
2023-02-01T09:52:41.751Z,8.60
2023-02-01T09:55:21.980Z,8.60
2023-02-01T09:57:57.207Z,8.60
2023-02-01T10:00:30.967Z,8.60
2023-02-01T10:03:00.673Z,8.60
2023-02-01T10:05:58.982Z,8.70
2023-02-01T10:09:02.101Z,8.70
2023-02-01T10:12:09.495Z,8.80
2023-02-01T10:14:39.788Z,8.80
2023-02-01T10:17:37.047Z,8.80
2023-02-01T10:20:13.682Z,8.80
2023-02-01T10:23:23.144Z,8.90
2023-02-01T10:26:05.284Z,9.00
2023-02-01T10:28:41.358Z,9.00
2023-02-01T10:31:11.326Z,9.00
2023-02-01T10:34:03.881Z,9.10
2023-02-01T10:36:43.820Z,9.10
2023-02-01T10:39:14.672Z,9.10
2023-02-01T10:41:43.879Z,9.20
2023-02-01T10:44:23.496Z,9.20
2023-02-01T10:46:51.617Z,9.30
2023-02-01T10:49:27.634Z,9.30
2023-02-01T10:52:15.557Z,9.30
2023-02-01T10:54:45.538Z,9.40
2023-02-01T10:57:26.946Z,9.40
2023-02-01T10:59:54.883Z,9.40
2023-02-01T11:02:27.384Z,9.40
2023-02-01T11:05:13.324Z,9.50
2023-02-01T11:07:47.785Z,9.50
2023-02-01T11:10:43.707Z,9.50
2023-02-01T11:13:21.534Z,9.60
2023-02-01T11:15:57.388Z,9.60
2023-02-01T11:18:36.714Z,9.60
2023-02-01T11:21:07.569Z,9.70
2023-02-01T11:23:40.340Z,9.80
2023-02-01T11:26:21.038Z,9.80
2023-02-01T11:28:55.508Z,9.80
2023-02-01T11:31:24.998Z,9.90
2023-02-01T11:34:00.171Z,9.90
2023-02-01T11:36:35.073Z,10.00
2023-02-01T11:39:13.595Z,10.00
2023-02-01T11:41:57.142Z,10.00
2023-02-01T11:44:35.347Z,10.10
2023-02-01T11:47:32.724Z,10.10
2023-02-01T11:50:06.036Z,10.20
2023-02-01T11:52:45.479Z,10.20
2023-02-01T11:55:12.700Z,10.20
2023-02-01T11:57:54.978Z,10.30
2023-02-01T12:00:22.354Z,10.30
2023-02-01T12:03:14.746Z,10.30
2023-02-01T12:05:47.470Z,10.40
2023-02-01T12:08:19.624Z,10.40
2023-02-01T12:11:24.336Z,10.40
2023-02-01T12:14:13.331Z,10.40
2023-02-01T12:16:40.506Z,10.50
2023-02-01T12:19:15.639Z,10.50
2023-02-01T12:22:04.845Z,10.50
2023-02-01T12:24:48.402Z,10.50
2023-02-01T12:27:53.233Z,10.60
2023-02-01T12:30:54.506Z,10.60
2023-02-01T12:33:33.178Z,10.70
2023-02-01T12:36:12.657Z,10.70
2023-02-01T12:38:46.532Z,10.60
2023-02-01T12:41:17.255Z,10.70
2023-02-01T12:43:47.722Z,10.70
2023-02-01T12:46:22.529Z,10.80
2023-02-01T12:49:12.628Z,10.80
2023-02-01T12:51:48.556Z,10.80
2023-02-01T12:54:31.268Z,10.80
2023-02-01T12:57:06.538Z,10.90
2023-02-01T12:59:39.247Z,10.90
2023-02-01T13:02:34.384Z,10.90
2023-02-01T13:05:28.937Z,11.00
2023-02-01T13:08:11.233Z,11.00
2023-02-01T13:10:55.516Z,11.00
2023-02-01T13:13:57.670Z,11.10
2023-02-01T13:16:39.967Z,11.10
2023-02-01T13:19:16.377Z,11.10
2023-02-01T13:21:49.840Z,11.10
2023-02-01T13:25:03.268Z,11.10
2023-02-01T13:27:36.447Z,11.10
2023-02-01T13:30:56.083Z,11.10
2023-02-01T13:33:54.214Z,11.10
2023-02-01T13:36:59.511Z,11.20
2023-02-01T13:39:52.220Z,11.20
2023-02-01T13:42:35.509Z,11.20
2023-02-01T13:45:17.589Z,11.30
2023-02-01T13:47:50.784Z,11.30
2023-02-01T13:50:38.232Z,11.40
2023-02-01T13:53:16.202Z,11.40
2023-02-01T13:55:55.796Z,11.50
2023-02-01T13:58:40.313Z,11.50
2023-02-01T14:01:25.026Z,11.50
2023-02-01T14:04:01.094Z,11.50
2023-02-01T14:06:31.048Z,11.50
2023-02-01T14:09:35.311Z,11.50
2023-02-01T14:12:44.791Z,11.60
2023-02-01T14:15:25.776Z,11.60
2023-02-01T14:17:58.022Z,11.50
2023-02-01T14:20:47.154Z,11.60
2023-02-01T14:23:18.137Z,11.50
2023-02-01T14:25:49.376Z,11.50
2023-02-01T14:28:27.425Z,11.50
2023-02-01T14:30:57.669Z,11.50
2023-02-01T14:33:29.197Z,11.50
2023-02-01T14:36:16.675Z,11.60
2023-02-01T14:38:52.023Z,11.60
2023-02-01T14:41:31.026Z,11.60
2023-02-01T14:44:04.914Z,11.60
2023-02-01T14:47:06.209Z,11.60
2023-02-01T14:49:38.078Z,11.60
2023-02-01T14:52:12.822Z,11.60
2023-02-01T14:54:48.028Z,11.60
2023-02-01T14:57:27.881Z,11.60
2023-02-01T15:00:14.807Z,11.60
2023-02-01T15:02:50.620Z,11.60
2023-02-01T15:05:35.189Z,11.60
2023-02-01T15:08:19.317Z,11.60
2023-02-01T15:10:54.253Z,11.60
2023-02-01T15:13:26.349Z,11.60
2023-02-01T15:16:04.789Z,11.50
2023-02-01T15:18:34.767Z,11.50
2023-02-01T15:21:25.572Z,11.50
2023-02-01T15:24:17.741Z,11.40
2023-02-01T15:26:47.122Z,11.40
2023-02-01T15:29:18.440Z,11.40
2023-02-01T15:31:55.742Z,11.30
2023-02-01T15:34:43.001Z,11.30
2023-02-01T15:37:17.383Z,11.30
2023-02-01T15:40:08.605Z,11.30
2023-02-01T15:42:36.895Z,11.30
2023-02-01T15:45:04.616Z,11.30
2023-02-01T15:47:34.137Z,11.30
2023-02-01T15:50:02.410Z,11.30
2023-02-01T15:52:40.747Z,11.30
2023-02-01T15:55:19.859Z,11.30
2023-02-01T15:57:47.664Z,11.30
2023-02-01T16:00:31.185Z,11.20
2023-02-01T16:03:01.556Z,11.30
2023-02-01T16:05:34.095Z,11.20
2023-02-01T16:08:11.855Z,11.20
2023-02-01T16:10:48.327Z,11.20
2023-02-01T16:13:19.293Z,11.20
2023-02-01T16:15:49.399Z,11.20
2023-02-01T16:18:18.771Z,11.20
2023-02-01T16:20:49.251Z,11.20
2023-02-01T16:23:19.851Z,11.20
2023-02-01T16:25:47.352Z,11.20
2023-02-01T16:28:14.525Z,11.20
2023-02-01T16:30:44.433Z,11.20
2023-02-01T16:33:21.468Z,11.20
2023-02-01T16:35:49.624Z,11.20
2023-02-01T16:38:21.002Z,11.20
2023-02-01T16:40:51.620Z,11.20
2023-02-01T16:43:23.703Z,11.20
2023-02-01T16:45:53.190Z,11.20
2023-02-01T16:48:29.282Z,11.20
2023-02-01T16:51:01.669Z,11.10
2023-02-01T16:53:34.498Z,11.10
2023-02-01T16:56:15.893Z,11.10
2023-02-01T16:58:44.027Z,11.10
2023-02-01T17:01:15.024Z,11.10
2023-02-01T17:03:46.725Z,11.10
2023-02-01T17:06:20.062Z,11.10
2023-02-01T17:09:01.516Z,11.10
2023-02-01T17:11:33.625Z,11.00
2023-02-01T17:14:22.700Z,11.00
2023-02-01T17:16:54.550Z,11.00
2023-02-01T17:19:27.439Z,11.00
2023-02-01T17:21:56.852Z,11.00
2023-02-01T17:24:42.495Z,11.00
2023-02-01T17:27:14.864Z,11.00
2023-02-01T17:29:48.472Z,11.00
2023-02-01T17:32:22.114Z,11.00
2023-02-01T17:34:53.873Z,11.00
2023-02-01T17:37:31.405Z,11.00
2023-02-01T17:39:59.023Z,11.00
2023-02-01T17:42:28.415Z,11.00
2023-02-01T17:45:01.076Z,11.00
2023-02-01T17:47:28.395Z,11.00
2023-02-01T17:49:58.030Z,11.00
2023-02-01T17:52:29.143Z,11.00
2023-02-01T17:55:01.111Z,11.00
2023-02-01T17:57:30.534Z,11.00
2023-02-01T17:59:59.758Z,11.00
2023-02-01T18:02:29.174Z,11.00
2023-02-01T18:04:59.001Z,11.00
2023-02-01T18:07:26.208Z,11.00
2023-02-01T18:09:56.397Z,11.00
2023-02-01T18:12:29.473Z,11.00
2023-02-01T18:14:57.295Z,11.00
2023-02-01T18:17:26.654Z,11.00
2023-02-01T18:19:56.622Z,11.00
2023-02-01T18:22:27.296Z,11.00
2023-02-01T18:24:56.784Z,11.00
2023-02-01T18:27:24.070Z,11.00
2023-02-01T18:29:53.732Z,11.00
2023-02-01T18:32:25.539Z,11.00
2023-02-01T18:34:55.146Z,11.00
2023-02-01T18:37:22.378Z,10.90
2023-02-01T18:39:50.208Z,10.90
2023-02-01T18:42:17.461Z,10.90
2023-02-01T18:44:47.077Z,11.00
2023-02-01T18:47:16.637Z,11.00
2023-02-01T18:49:46.432Z,10.90
2023-02-01T18:52:14.211Z,10.90
2023-02-01T18:54:59.510Z,10.90
2023-02-01T18:57:27.362Z,10.90
2023-02-01T18:59:56.922Z,10.90
2023-02-01T19:02:24.166Z,10.90
2023-02-01T19:04:51.361Z,10.90
2023-02-01T19:07:20.849Z,10.90
2023-02-01T19:09:48.539Z,10.90
2023-02-01T19:12:15.759Z,10.90
2023-02-01T19:14:44.197Z,10.80
2023-02-01T19:17:11.455Z,10.80
2023-02-01T19:19:39.958Z,10.90
2023-02-01T19:22:11.081Z,10.90
2023-02-01T19:24:39.774Z,10.90
2023-02-01T19:27:07.909Z,10.90
2023-02-01T19:29:42.533Z,10.90
2023-02-01T19:32:17.436Z,10.90
2023-02-01T19:34:49.575Z,10.90
2023-02-01T19:37:16.880Z,10.90
2023-02-01T19:39:44.088Z,10.90
2023-02-01T19:42:14.414Z,10.90
2023-02-01T19:44:44.242Z,10.90
2023-02-01T19:47:11.512Z,10.90
2023-02-01T19:49:40.966Z,10.90
2023-02-01T19:52:12.896Z,10.90
2023-02-01T19:54:44.686Z,10.90
2023-02-01T19:57:11.880Z,10.90
2023-02-01T19:59:39.041Z,10.90
2023-02-01T20:02:05.365Z,10.90
2023-02-01T20:04:34.651Z,10.90
2023-02-01T20:07:04.089Z,10.90
2023-02-01T20:09:31.378Z,10.90
2023-02-01T20:12:02.117Z,10.90
2023-02-01T20:14:29.727Z,11.00
2023-02-01T20:16:57.096Z,10.90
2023-02-01T20:19:26.775Z,10.90
2023-02-01T20:21:56.408Z,10.90
2023-02-01T20:24:26.688Z,10.90
2023-02-01T20:26:57.141Z,10.90
2023-02-01T20:29:29.403Z,10.90
2023-02-01T20:31:56.572Z,10.90
2023-02-01T20:34:26.228Z,10.90
2023-02-01T20:36:53.462Z,10.90
2023-02-01T20:39:22.920Z,10.90
2023-02-01T20:41:52.540Z,10.90
2023-02-01T20:44:21.768Z,10.90
2023-02-01T20:46:51.568Z,10.90
2023-02-01T20:49:21.259Z,10.90
2023-02-01T20:51:53.192Z,10.90
2023-02-01T20:54:22.860Z,10.90
2023-02-01T20:56:54.633Z,10.90
2023-02-01T20:59:26.545Z,10.90
2023-02-01T21:01:55.900Z,10.90
2023-02-01T21:04:27.528Z,10.90
2023-02-01T21:07:03.148Z,10.90
2023-02-01T21:09:31.430Z,10.90
2023-02-01T21:12:01.025Z,10.90
2023-02-01T21:14:30.260Z,10.90
2023-02-01T21:16:59.702Z,10.90
2023-02-01T21:19:29.415Z,10.90
2023-02-01T21:21:59.041Z,11.00
2023-02-01T21:24:28.393Z,10.90
2023-02-01T21:26:55.615Z,11.00
2023-02-01T21:29:25.246Z,11.00
2023-02-01T21:31:54.492Z,10.90
2023-02-01T21:34:24.128Z,11.00
2023-02-01T21:36:53.722Z,10.90
2023-02-01T21:39:20.853Z,10.90
2023-02-01T21:42:06.842Z,10.90
2023-02-01T21:44:34.025Z,10.90
2023-02-01T21:47:03.797Z,10.90
2023-02-01T21:49:31.465Z,10.90
2023-02-01T21:51:59.468Z,10.90
2023-02-01T21:54:29.124Z,10.90
2023-02-01T21:56:56.259Z,10.90
2023-02-01T21:59:23.467Z,10.90
2023-02-01T22:01:54.807Z,10.90
2023-02-01T22:04:26.208Z,10.90
2023-02-01T22:06:53.356Z,10.90
2023-02-01T22:09:27.293Z,10.90
2023-02-01T22:11:55.748Z,10.90
2023-02-01T22:14:25.644Z,11.00
2023-02-01T22:16:55.173Z,10.90
2023-02-01T22:19:24.963Z,10.90
2023-02-01T22:21:54.561Z,11.00
2023-02-01T22:24:22.079Z,11.00
2023-02-01T22:26:50.343Z,10.90
2023-02-01T22:29:20.299Z,11.00
2023-02-01T22:31:48.009Z,11.00
2023-02-01T22:34:15.646Z,11.00
2023-02-01T22:36:43.001Z,10.90
2023-02-01T22:39:15.153Z,10.90
2023-02-01T22:41:44.537Z,10.90
2023-02-01T22:44:14.911Z,10.90
2023-02-01T22:46:42.047Z,10.90
2023-02-01T22:49:09.235Z,11.00
2023-02-01T22:51:36.480Z,10.90
2023-02-01T22:54:21.304Z,11.00
2023-02-01T22:56:49.528Z,10.90
2023-02-01T22:59:16.826Z,10.90
2023-02-01T23:01:44.677Z,10.90
2023-02-01T23:04:16.672Z,10.80
2023-02-01T23:06:46.078Z,10.90
2023-02-01T23:09:22.158Z,10.90
2023-02-01T23:11:52.379Z,10.90
2023-02-01T23:14:20.100Z,10.90
2023-02-01T23:16:52.691Z,10.90
2023-02-01T23:19:22.516Z,10.90
2023-02-01T23:21:49.825Z,10.90
2023-02-01T23:24:19.543Z,10.90
2023-02-01T23:26:51.302Z,10.90
2023-02-01T23:29:18.905Z,10.90
2023-02-01T23:31:48.271Z,10.90
2023-02-01T23:34:15.527Z,10.90
2023-02-01T23:36:44.925Z,10.90
2023-02-01T23:39:14.805Z,10.90
2023-02-01T23:41:41.951Z,10.90
2023-02-01T23:44:13.766Z,10.90
2023-02-01T23:46:47.161Z,10.90
2023-02-01T23:49:17.910Z,11.00
2023-02-01T23:51:51.569Z,11.00
2023-02-01T23:54:22.925Z,10.90
2023-02-01T23:56:50.479Z,10.90
2023-02-01T23:59:22.236Z,10.90
